createdAt,value
2018-12-14T00:00:18.061Z,1.66
2018-12-14T00:00:55.121Z,1.64
2018-12-14T00:01:33.521Z,1.69
2018-12-14T00:02:10.328Z,1.73
2018-12-14T00:02:45.003Z,1.73
2018-12-14T00:03:19.589Z,1.75
2018-12-14T00:03:54.632Z,1.80
2018-12-14T00:04:29.747Z,1.74
2018-12-14T00:05:05.368Z,1.75
2018-12-14T00:05:40.010Z,1.74
2018-12-14T00:06:14.658Z,1.69
2018-12-14T00:06:49.296Z,1.78
2018-12-14T00:07:23.866Z,1.76
2018-12-14T00:07:58.476Z,1.78
2018-12-14T00:08:33.060Z,1.74
2018-12-14T00:09:08.189Z,1.69
2018-12-14T00:09:42.900Z,1.78
2018-12-14T00:10:17.542Z,1.79
2018-12-14T00:10:52.149Z,1.76
2018-12-14T00:11:26.795Z,1.73
2018-12-14T00:12:01.373Z,1.78
2018-12-14T00:12:36.391Z,1.78
2018-12-14T00:13:11.031Z,1.79
2018-12-14T00:13:45.687Z,1.76
2018-12-14T00:14:20.787Z,1.72
2018-12-14T00:14:55.399Z,1.69
2018-12-14T00:15:30.092Z,1.68
2018-12-14T00:16:05.233Z,1.64
2018-12-14T00:16:39.901Z,1.63
2018-12-14T00:17:14.668Z,1.67
2018-12-14T00:17:49.306Z,1.70
2018-12-14T00:18:24.154Z,1.67
2018-12-14T00:18:58.760Z,1.61
2018-12-14T00:19:33.837Z,1.62
2018-12-14T00:20:09.678Z,1.64
2018-12-14T00:20:44.403Z,1.63
2018-12-14T00:21:19.016Z,1.63
2018-12-14T00:21:53.660Z,1.65
2018-12-14T00:22:28.803Z,1.62
2018-12-14T00:23:03.356Z,1.61
2018-12-14T00:23:38.016Z,1.61
2018-12-14T00:24:12.715Z,1.67
2018-12-14T00:24:47.367Z,1.69
2018-12-14T00:25:22.986Z,1.63
2018-12-14T00:25:57.625Z,1.63
2018-12-14T00:26:32.253Z,1.64
2018-12-14T00:27:07.220Z,1.63
2018-12-14T00:27:41.864Z,1.57
2018-12-14T00:28:16.533Z,1.57
2018-12-14T00:28:51.187Z,1.53
2018-12-14T00:29:25.835Z,1.53
2018-12-14T00:30:00.769Z,1.55
2018-12-14T00:30:35.393Z,1.60
2018-12-14T00:31:10.309Z,1.57
2018-12-14T00:31:45.120Z,1.57
2018-12-14T00:32:20.319Z,1.54
2018-12-14T00:32:55.074Z,1.61
2018-12-14T00:33:29.738Z,1.60
2018-12-14T00:34:04.468Z,1.58
2018-12-14T00:34:39.160Z,1.51
2018-12-14T00:35:14.421Z,1.54
2018-12-14T00:35:49.356Z,1.53
2018-12-14T00:36:23.968Z,1.50
2018-12-14T00:36:58.576Z,1.54
2018-12-14T00:37:33.187Z,1.52
2018-12-14T00:38:07.887Z,1.53
2018-12-14T00:38:42.552Z,1.51
2018-12-14T00:39:17.196Z,1.67
2018-12-14T00:39:51.932Z,1.72
2018-12-14T00:40:26.637Z,1.73
2018-12-14T00:41:01.229Z,1.64
2018-12-14T00:41:35.861Z,1.67
2018-12-14T00:42:11.182Z,1.72
2018-12-14T00:42:45.945Z,1.69
2018-12-14T00:43:20.651Z,1.62
2018-12-14T00:43:55.242Z,1.64
2018-12-14T00:44:29.872Z,1.63
2018-12-14T00:45:05.494Z,1.63
2018-12-14T00:45:40.231Z,1.62
2018-12-14T00:46:14.916Z,1.69
2018-12-14T00:46:49.545Z,1.68
2018-12-14T00:47:24.153Z,1.67
2018-12-14T00:47:58.767Z,1.64
2018-12-14T00:48:33.399Z,1.65
2018-12-14T00:49:08.142Z,1.65
2018-12-14T00:49:42.890Z,1.58
2018-12-14T00:50:17.547Z,1.57
2018-12-14T00:50:52.270Z,1.55
2018-12-14T00:51:26.980Z,1.66
2018-12-14T00:52:01.599Z,1.61
2018-12-14T00:52:36.225Z,1.60
2018-12-14T00:53:10.972Z,1.59
2018-12-14T00:53:45.651Z,1.60
2018-12-14T00:54:20.283Z,1.66
2018-12-14T00:54:54.942Z,1.64
2018-12-14T00:55:29.558Z,1.61
2018-12-14T00:56:04.188Z,1.66
2018-12-14T00:56:39.445Z,1.66
2018-12-14T00:57:14.264Z,1.64
2018-12-14T00:57:48.893Z,1.62
2018-12-14T00:58:23.594Z,1.60
2018-12-14T00:58:58.330Z,1.60
2018-12-14T00:59:33.244Z,1.64
2018-12-14T01:00:12.243Z,1.63
2018-12-14T01:00:46.874Z,1.58
2018-12-14T01:01:21.590Z,1.62
2018-12-14T01:01:56.628Z,1.69
2018-12-14T01:02:31.312Z,1.61
2018-12-14T01:03:06.046Z,1.69
2018-12-14T01:03:41.161Z,1.68
2018-12-14T01:04:16.342Z,1.67
2018-12-14T01:04:50.952Z,1.67
2018-12-14T01:05:25.600Z,1.66
2018-12-14T01:06:00.215Z,1.69
2018-12-14T01:06:34.947Z,1.70
2018-12-14T01:07:09.721Z,1.69
2018-12-14T01:07:44.894Z,1.74
2018-12-14T01:08:19.529Z,1.68
2018-12-14T01:08:54.221Z,1.72
2018-12-14T01:09:28.956Z,1.68
2018-12-14T01:10:04.501Z,1.64
2018-12-14T01:10:39.705Z,1.59
2018-12-14T01:11:14.390Z,1.58
2018-12-14T01:11:49.140Z,1.64
2018-12-14T01:12:23.775Z,1.63
2018-12-14T01:12:58.417Z,1.67
2018-12-14T01:13:33.083Z,1.71
2018-12-14T01:14:07.721Z,1.67
2018-12-14T01:14:42.460Z,1.62
2018-12-14T01:15:17.143Z,1.57
2018-12-14T01:15:51.855Z,1.54
2018-12-14T01:16:26.723Z,1.54
2018-12-14T01:17:01.347Z,1.57
2018-12-14T01:18:15.952Z,1.65
2018-12-14T01:18:50.649Z,1.66
2018-12-14T01:19:25.407Z,1.67
2018-12-14T01:20:00.037Z,1.62
2018-12-14T01:20:34.692Z,1.51
2018-12-14T01:21:09.412Z,1.60
2018-12-14T01:21:44.126Z,1.60
2018-12-14T01:22:18.978Z,1.60
2018-12-14T01:22:53.556Z,1.61
2018-12-14T01:23:28.167Z,1.57
2018-12-14T01:24:02.803Z,1.55
2018-12-14T01:24:37.594Z,1.58
2018-12-14T01:25:12.262Z,1.63
2018-12-14T01:25:47.092Z,1.69
2018-12-14T01:26:21.758Z,1.68
2018-12-14T01:26:56.366Z,1.63
2018-12-14T01:27:30.957Z,1.70
2018-12-14T01:28:05.593Z,1.73
2018-12-14T01:28:40.275Z,1.74
2018-12-14T01:29:16.774Z,1.73
2018-12-14T01:29:51.369Z,1.74
2018-12-14T01:30:25.958Z,1.69
2018-12-14T01:31:00.560Z,1.67
2018-12-14T01:31:35.248Z,1.66
2018-12-14T01:32:09.914Z,1.72
2018-12-14T01:32:44.591Z,1.73
2018-12-14T01:33:19.211Z,1.69
2018-12-14T01:33:53.818Z,1.68
2018-12-14T01:34:28.420Z,1.74
2018-12-14T01:35:03.010Z,1.75
2018-12-14T01:35:37.687Z,1.66
2018-12-14T01:36:12.303Z,1.61
2018-12-14T01:36:46.985Z,1.69
2018-12-14T01:37:21.600Z,1.62
2018-12-14T01:37:56.209Z,1.59
2018-12-14T01:38:31.009Z,1.57
2018-12-14T01:39:06.969Z,1.55
2018-12-14T01:39:41.665Z,1.53
2018-12-14T01:40:16.306Z,1.53
2018-12-14T01:40:50.877Z,1.53
2018-12-14T01:41:25.502Z,1.58
2018-12-14T01:42:04.892Z,1.54
2018-12-14T01:42:36.903Z,1.58
2018-12-14T01:43:12.033Z,1.58
2018-12-14T01:43:46.776Z,1.62
2018-12-14T01:44:21.382Z,1.63
2018-12-14T01:44:56.015Z,1.61
2018-12-14T01:45:30.778Z,1.60
2018-12-14T01:46:05.353Z,1.71
2018-12-14T01:46:40.572Z,1.66
2018-12-14T01:47:15.647Z,1.68
2018-12-14T01:47:50.314Z,1.70
2018-12-14T01:48:25.104Z,1.68
2018-12-14T01:48:59.700Z,1.66
2018-12-14T01:49:34.325Z,1.62
2018-12-14T01:50:08.956Z,1.67
2018-12-14T01:50:43.647Z,1.70
2018-12-14T01:51:18.280Z,1.72
2018-12-14T01:51:52.882Z,1.64
2018-12-14T01:52:27.850Z,1.63
2018-12-14T01:53:02.533Z,1.65
2018-12-14T01:53:37.124Z,1.69
2018-12-14T01:54:11.772Z,1.64
2018-12-14T01:54:46.483Z,1.79
2018-12-14T01:55:21.192Z,1.75
2018-12-14T01:55:55.911Z,1.73
2018-12-14T01:56:30.491Z,1.64
2018-12-14T01:57:05.089Z,1.63
2018-12-14T01:57:40.228Z,1.69
2018-12-14T01:58:14.793Z,1.66
2018-12-14T01:58:49.366Z,1.66
2018-12-14T01:59:24.011Z,1.59
2018-12-14T01:59:58.624Z,1.58
2018-12-14T02:00:33.661Z,1.55
2018-12-14T02:01:08.266Z,1.54
2018-12-14T02:01:43.601Z,1.57
2018-12-14T02:02:18.219Z,1.59
2018-12-14T02:02:52.916Z,1.59
2018-12-14T02:03:27.649Z,1.59
2018-12-14T02:04:02.237Z,1.54
2018-12-14T02:04:36.873Z,1.53
2018-12-14T02:05:12.120Z,1.62
2018-12-14T02:05:46.782Z,1.60
2018-12-14T02:06:21.908Z,1.61
2018-12-14T02:06:56.525Z,1.59
2018-12-14T02:07:31.729Z,1.58
2018-12-14T02:08:06.367Z,1.57
2018-12-14T02:08:41.146Z,1.59
2018-12-14T02:09:15.786Z,1.57
2018-12-14T02:09:50.429Z,1.62
2018-12-14T02:10:25.060Z,1.76
2018-12-14T02:10:59.679Z,1.77
2018-12-14T02:11:34.262Z,1.77
2018-12-14T02:12:11.392Z,1.73
2018-12-14T02:12:45.514Z,1.68
2018-12-14T02:13:20.091Z,1.63
2018-12-14T02:13:54.674Z,1.73
2018-12-14T02:14:29.270Z,1.69
2018-12-14T02:15:04.968Z,1.66
2018-12-14T02:15:39.630Z,1.69
2018-12-14T02:16:14.283Z,1.62
2018-12-14T02:16:48.990Z,1.63
2018-12-14T02:17:23.729Z,1.61
2018-12-14T02:17:58.314Z,1.68
2018-12-14T02:18:33.003Z,1.65
2018-12-14T02:19:07.763Z,1.69
2018-12-14T02:19:42.466Z,1.64
2018-12-14T02:20:17.477Z,1.68
2018-12-14T02:20:52.074Z,1.68
2018-12-14T02:21:26.725Z,1.62
2018-12-14T02:22:01.311Z,1.63
2018-12-14T02:22:35.893Z,1.62
2018-12-14T02:23:10.565Z,1.66
2018-12-14T02:23:45.174Z,1.67
2018-12-14T02:24:19.757Z,1.67
2018-12-14T02:24:54.443Z,1.65
2018-12-14T02:25:29.023Z,1.71
2018-12-14T02:26:03.761Z,1.66
2018-12-14T02:26:38.594Z,1.66
2018-12-14T02:27:13.301Z,1.64
2018-12-14T02:27:47.906Z,1.70
2018-12-14T02:28:22.888Z,1.69
2018-12-14T02:28:57.503Z,1.68
2018-12-14T02:29:32.077Z,1.67
2018-12-14T02:30:17.999Z,1.63
2018-12-14T02:30:52.641Z,1.68
2018-12-14T02:31:27.249Z,1.65
2018-12-14T02:32:02.117Z,1.72
2018-12-14T02:32:36.710Z,1.69
2018-12-14T02:33:11.625Z,1.69
2018-12-14T02:33:46.290Z,1.69
2018-12-14T02:34:20.873Z,1.70
2018-12-14T02:34:55.477Z,1.63
2018-12-14T02:35:30.058Z,1.61
2018-12-14T02:36:04.689Z,1.55
2018-12-14T02:36:39.541Z,1.63
2018-12-14T02:37:14.319Z,1.60
2018-12-14T02:37:49.260Z,1.59
2018-12-14T02:38:23.843Z,1.61
2018-12-14T02:38:58.452Z,1.55
2018-12-14T02:39:33.074Z,1.56
2018-12-14T02:40:08.141Z,1.54
2018-12-14T02:40:43.340Z,1.53
2018-12-14T02:41:17.981Z,1.65
2018-12-14T02:41:52.561Z,1.60
2018-12-14T02:42:27.192Z,1.61
2018-12-14T02:43:01.747Z,1.60
2018-12-14T02:43:36.673Z,1.75
2018-12-14T02:44:11.309Z,1.70
2018-12-14T02:44:46.148Z,1.63
2018-12-14T02:45:21.523Z,1.61
2018-12-14T02:45:56.121Z,1.57
2018-12-14T02:46:31.175Z,1.55
2018-12-14T02:47:06.238Z,1.53
2018-12-14T02:47:40.981Z,1.53
2018-12-14T02:48:15.661Z,1.52
2018-12-14T02:48:50.259Z,1.52
2018-12-14T02:49:24.848Z,1.48
2018-12-14T02:49:59.458Z,1.53
2018-12-14T02:50:34.623Z,1.51
2018-12-14T02:51:09.258Z,1.51
2018-12-14T02:51:44.034Z,1.50
2018-12-14T02:52:18.658Z,1.47
2018-12-14T02:52:53.798Z,1.54
2018-12-14T02:53:28.436Z,1.50
2018-12-14T02:54:03.021Z,1.48
2018-12-14T02:54:37.900Z,1.49
2018-12-14T02:55:13.254Z,1.49
2018-12-14T02:55:48.024Z,1.57
2018-12-14T02:56:22.615Z,1.55
2018-12-14T02:56:57.252Z,1.51
2018-12-14T02:57:31.843Z,1.55
2018-12-14T02:58:06.446Z,1.61
2018-12-14T02:58:41.168Z,1.57
2018-12-14T02:59:15.783Z,1.51
2018-12-14T02:59:50.824Z,1.53
2018-12-14T03:00:25.409Z,1.54
2018-12-14T03:01:00.079Z,1.52
2018-12-14T03:01:34.688Z,1.49
2018-12-14T03:02:09.350Z,1.51
2018-12-14T03:02:44.321Z,1.50
2018-12-14T03:03:19.041Z,1.56
2018-12-14T03:03:53.640Z,1.56
2018-12-14T03:04:28.238Z,1.60
2018-12-14T03:05:02.909Z,1.59
2018-12-14T03:05:37.613Z,1.55
2018-12-14T03:06:12.365Z,1.54
2018-12-14T03:06:47.184Z,1.61
2018-12-14T03:07:21.770Z,1.59
2018-12-14T03:07:56.360Z,1.51
2018-12-14T03:08:30.946Z,1.55
2018-12-14T03:09:07.119Z,1.54
2018-12-14T03:09:41.792Z,1.50
2018-12-14T03:10:16.514Z,1.48
2018-12-14T03:10:51.085Z,1.46
2018-12-14T03:11:25.670Z,1.46
2018-12-14T03:12:00.259Z,1.48
2018-12-14T03:12:35.216Z,1.49
2018-12-14T03:13:09.855Z,1.46
2018-12-14T03:13:44.979Z,1.45
2018-12-14T03:14:19.729Z,1.52
2018-12-14T03:14:54.419Z,1.55
2018-12-14T03:15:29.119Z,1.54
2018-12-14T03:16:04.166Z,1.57
2018-12-14T03:16:38.765Z,1.55
2018-12-14T03:17:13.720Z,1.53
2018-12-14T03:17:48.338Z,1.61
2018-12-14T03:18:22.983Z,1.59
2018-12-14T03:18:57.648Z,1.57
2018-12-14T03:19:32.249Z,1.59
2018-12-14T03:20:08.324Z,1.55
2018-12-14T03:20:43.014Z,1.62
2018-12-14T03:21:17.713Z,1.59
2018-12-14T03:21:52.284Z,1.55
2018-12-14T03:22:27.216Z,1.56
2018-12-14T03:23:01.793Z,1.52
2018-12-14T03:23:36.368Z,1.50
2018-12-14T03:24:11.216Z,1.53
2018-12-14T03:24:46.180Z,1.57
2018-12-14T03:25:20.805Z,1.52
2018-12-14T03:25:55.747Z,1.54
2018-12-14T03:26:30.360Z,1.57
2018-12-14T03:27:05.412Z,1.55
2018-12-14T03:27:40.148Z,1.56
2018-12-14T03:28:14.787Z,1.56
2018-12-14T03:28:49.472Z,1.51
2018-12-14T03:29:24.033Z,1.46
2018-12-14T03:29:58.648Z,1.49
2018-12-14T03:30:33.252Z,1.58
2018-12-14T03:31:07.880Z,1.56
2018-12-14T03:31:42.792Z,1.58
2018-12-14T03:32:17.454Z,1.57
2018-12-14T03:32:52.363Z,1.58
2018-12-14T03:33:27.214Z,1.57
2018-12-14T03:34:02.069Z,1.54
2018-12-14T03:34:36.623Z,1.48
2018-12-14T03:35:11.333Z,1.48
2018-12-14T03:35:46.099Z,1.45
2018-12-14T03:36:20.685Z,1.45
2018-12-14T03:36:55.271Z,1.49
2018-12-14T03:37:29.862Z,1.62
2018-12-14T03:38:04.436Z,1.70
2018-12-14T03:38:39.094Z,1.63
2018-12-14T03:39:14.201Z,1.65
2018-12-14T03:39:48.875Z,1.60
2018-12-14T03:40:23.908Z,1.55
2018-12-14T03:40:58.568Z,1.62
2018-12-14T03:41:33.619Z,1.55
2018-12-14T03:42:09.393Z,1.55
2018-12-14T03:42:44.151Z,1.55
2018-12-14T03:43:19.031Z,1.57
2018-12-14T03:43:53.626Z,1.48
2018-12-14T03:44:28.605Z,1.46
2018-12-14T03:45:03.681Z,1.48
2018-12-14T03:45:38.649Z,1.46
2018-12-14T03:46:13.505Z,1.48
2018-12-14T03:46:48.570Z,1.52
2018-12-14T03:47:23.177Z,1.51
2018-12-14T03:47:57.767Z,1.49
2018-12-14T03:48:32.460Z,1.54
2018-12-14T03:49:07.070Z,1.51
2018-12-14T03:49:41.733Z,1.50
2018-12-14T03:50:16.418Z,1.51
2018-12-14T03:50:51.143Z,1.53
2018-12-14T03:51:28.738Z,1.54
2018-12-14T03:52:03.382Z,1.54
2018-12-14T03:52:37.983Z,1.57
2018-12-14T03:53:12.686Z,1.55
2018-12-14T03:53:47.391Z,1.61
2018-12-14T03:54:21.979Z,1.61
2018-12-14T03:54:56.683Z,1.64
2018-12-14T03:55:31.676Z,1.56
2018-12-14T03:56:06.297Z,1.66
2018-12-14T03:56:41.358Z,1.63
2018-12-14T03:57:16.042Z,1.64
2018-12-14T03:57:50.714Z,1.69
2018-12-14T03:58:25.445Z,1.64
2018-12-14T03:59:00.062Z,1.62
2018-12-14T03:59:34.968Z,1.56
2018-12-14T04:00:11.812Z,1.54
2018-12-14T04:00:46.858Z,1.52
2018-12-14T04:01:21.907Z,1.52
2018-12-14T04:01:56.509Z,1.53
2018-12-14T04:02:31.283Z,1.57
2018-12-14T04:03:06.268Z,1.55
2018-12-14T04:03:41.385Z,1.53
2018-12-14T04:04:16.105Z,1.56
2018-12-14T04:04:50.745Z,1.56
2018-12-14T04:05:25.716Z,1.37
2018-12-14T04:06:00.334Z,1.61
2018-12-14T04:06:34.940Z,1.61
2018-12-14T04:07:09.609Z,1.56
2018-12-14T04:07:44.240Z,1.55
2018-12-14T04:08:18.889Z,1.55
2018-12-14T04:08:53.513Z,1.54
2018-12-14T04:09:28.105Z,1.60
2018-12-14T04:10:03.200Z,1.59
2018-12-14T04:10:37.849Z,1.60
2018-12-14T04:11:12.741Z,1.60
2018-12-14T04:11:47.552Z,1.62
2018-12-14T04:12:22.294Z,1.30
2018-12-14T04:12:57.368Z,1.58
2018-12-14T04:13:32.389Z,1.49
2018-12-14T04:14:07.598Z,1.57
2018-12-14T04:14:42.707Z,1.56
2018-12-14T04:15:17.710Z,1.55
2018-12-14T04:15:52.309Z,1.49
2018-12-14T04:16:26.991Z,1.58
2018-12-14T04:17:01.601Z,1.51
2018-12-14T04:17:36.345Z,1.52
2018-12-14T04:18:11.210Z,1.52
2018-12-14T04:18:46.061Z,1.55
2018-12-14T04:19:21.125Z,1.51
2018-12-14T04:19:55.844Z,1.49
2018-12-14T04:20:30.630Z,1.45
2018-12-14T04:21:06.237Z,1.46
2018-12-14T04:21:40.902Z,1.42
2018-12-14T04:22:15.575Z,1.48
2018-12-14T04:22:50.206Z,1.59
2018-12-14T04:23:24.881Z,1.60
2018-12-14T04:23:59.635Z,1.51
2018-12-14T04:24:34.240Z,1.56
2018-12-14T04:25:09.024Z,1.53
2018-12-14T04:25:43.682Z,1.54
2018-12-14T04:26:18.246Z,1.52
2018-12-14T04:26:52.915Z,1.50
2018-12-14T04:27:27.521Z,1.44
2018-12-14T04:28:02.165Z,1.54
2018-12-14T04:28:37.186Z,1.49
2018-12-14T04:29:11.900Z,1.44
2018-12-14T04:29:46.646Z,1.48
2018-12-14T04:30:21.288Z,1.47
2018-12-14T04:30:55.893Z,1.47
2018-12-14T04:31:30.551Z,1.49
2018-12-14T04:32:05.278Z,1.52
2018-12-14T04:32:40.033Z,1.52
2018-12-14T04:33:15.752Z,1.51
2018-12-14T04:33:50.435Z,1.54
2018-12-14T04:34:25.035Z,1.50
2018-12-14T04:34:59.678Z,1.51
2018-12-14T04:35:34.416Z,1.57
2018-12-14T04:36:09.191Z,1.58
2018-12-14T04:36:44.002Z,1.63
2018-12-14T04:37:18.634Z,1.58
2018-12-14T04:37:53.249Z,1.57
2018-12-14T04:38:27.861Z,1.58
2018-12-14T04:39:03.015Z,1.58
2018-12-14T04:39:37.730Z,1.48
2018-12-14T04:40:12.774Z,1.58
2018-12-14T04:40:47.743Z,1.55
2018-12-14T04:41:22.333Z,1.54
2018-12-14T04:41:56.945Z,1.50
2018-12-14T04:42:31.889Z,1.52
2018-12-14T04:43:06.992Z,1.54
2018-12-14T04:43:41.663Z,1.54
2018-12-14T04:44:16.493Z,1.54
2018-12-14T04:44:51.141Z,1.58
2018-12-14T04:45:25.748Z,1.55
2018-12-14T04:46:00.346Z,1.60
2018-12-14T04:46:34.946Z,1.61
2018-12-14T04:47:10.557Z,1.61
2018-12-14T04:47:45.162Z,1.63
2018-12-14T04:48:19.827Z,1.63
2018-12-14T04:48:54.453Z,1.57
2018-12-14T04:49:29.405Z,1.55
2018-12-14T04:50:04.902Z,1.52
2018-12-14T04:50:39.601Z,1.50
2018-12-14T04:51:14.282Z,1.50
2018-12-14T04:51:48.934Z,1.49
2018-12-14T04:52:23.529Z,1.49
2018-12-14T04:52:58.210Z,1.46
2018-12-14T04:53:32.800Z,1.48
2018-12-14T04:54:07.472Z,1.47
2018-12-14T04:54:42.250Z,1.40
2018-12-14T04:55:17.000Z,1.42
2018-12-14T04:55:51.623Z,1.42
2018-12-14T04:56:26.751Z,1.50
2018-12-14T04:57:01.356Z,1.51
2018-12-14T04:57:36.012Z,1.51
2018-12-14T04:58:11.294Z,1.50
2018-12-14T04:58:46.324Z,1.45
2018-12-14T04:59:20.948Z,1.44
2018-12-14T04:59:55.533Z,1.44
2018-12-14T05:00:30.878Z,1.45
2018-12-14T05:01:05.490Z,1.43
2018-12-14T05:01:40.378Z,1.47
2018-12-14T05:02:15.031Z,1.43
2018-12-14T05:02:49.678Z,1.49
2018-12-14T05:03:24.289Z,1.48
2018-12-14T05:03:58.936Z,1.46
2018-12-14T05:04:33.540Z,1.46
2018-12-14T05:05:08.657Z,1.48
2018-12-14T05:05:43.402Z,1.44
2018-12-14T05:06:18.568Z,1.46
2018-12-14T05:06:53.177Z,1.46
2018-12-14T05:07:27.788Z,1.49
2018-12-14T05:08:02.396Z,1.50
2018-12-14T05:08:37.008Z,1.51
2018-12-14T05:09:11.704Z,1.50
2018-12-14T05:09:46.393Z,1.48
2018-12-14T05:10:21.018Z,1.45
2018-12-14T05:10:55.983Z,1.43
2018-12-14T05:11:30.598Z,1.41
2018-12-14T05:12:05.593Z,1.47
2018-12-14T05:12:40.313Z,1.46
2018-12-14T05:13:15.026Z,1.47
2018-12-14T05:13:49.649Z,1.48
2018-12-14T05:14:24.592Z,1.50
2018-12-14T05:14:59.244Z,1.48
2018-12-14T05:15:34.493Z,1.52
2018-12-14T05:16:09.145Z,1.54
2018-12-14T05:16:45.351Z,1.50
2018-12-14T05:17:20.814Z,1.54
2018-12-14T05:17:55.470Z,1.47
2018-12-14T05:18:30.073Z,1.49
2018-12-14T05:19:04.699Z,1.48
2018-12-14T05:19:39.352Z,1.49
2018-12-14T05:20:14.052Z,1.50
2018-12-14T05:20:49.010Z,1.52
2018-12-14T05:21:23.686Z,1.53
2018-12-14T05:21:58.644Z,1.58
2018-12-14T05:22:34.058Z,1.54
2018-12-14T05:23:08.717Z,1.53
2018-12-14T05:23:43.408Z,1.50
2018-12-14T05:24:18.088Z,1.50
2018-12-14T05:24:52.701Z,1.47
2018-12-14T05:25:27.338Z,1.50
2018-12-14T05:26:01.964Z,1.60
2018-12-14T05:26:36.558Z,1.57
2018-12-14T05:27:11.715Z,1.58
2018-12-14T05:27:46.424Z,1.58
2018-12-14T05:28:21.040Z,1.37
2018-12-14T05:28:55.637Z,1.54
2018-12-14T05:29:30.302Z,1.53
2018-12-14T05:30:06.909Z,1.51
2018-12-14T05:30:41.588Z,1.52
2018-12-14T05:31:16.371Z,1.54
2018-12-14T05:31:51.134Z,1.24
2018-12-14T05:32:25.734Z,1.51
2018-12-14T05:33:00.387Z,1.55
2018-12-14T05:33:35.074Z,1.55
2018-12-14T05:34:09.801Z,1.51
2018-12-14T05:34:44.458Z,1.53
2018-12-14T05:35:19.105Z,1.55
2018-12-14T05:35:53.716Z,1.50
2018-12-14T05:36:28.883Z,1.51
2018-12-14T05:37:03.580Z,1.48
2018-12-14T05:37:38.215Z,1.47
2018-12-14T05:38:13.084Z,1.48
2018-12-14T05:38:47.719Z,1.50
2018-12-14T05:39:22.341Z,1.54
2018-12-14T05:39:56.964Z,1.51
2018-12-14T05:40:31.751Z,1.50
2018-12-14T05:41:06.662Z,1.53
2018-12-14T05:41:41.465Z,1.45
2018-12-14T05:42:16.154Z,1.44
2018-12-14T05:42:50.885Z,1.43
2018-12-14T05:43:25.564Z,1.46
2018-12-14T05:44:00.190Z,1.46
2018-12-14T05:44:34.780Z,1.46
2018-12-14T05:45:09.566Z,1.47
2018-12-14T05:45:44.358Z,1.50
2018-12-14T05:46:19.169Z,1.53
2018-12-14T05:46:53.768Z,1.45
2018-12-14T05:47:28.386Z,1.47
2018-12-14T05:48:03.021Z,1.59
2018-12-14T05:48:37.690Z,1.53
2018-12-14T05:49:12.833Z,1.52
2018-12-14T05:49:47.496Z,1.57
2018-12-14T05:50:22.106Z,1.63
2018-12-14T05:50:57.178Z,1.59
2018-12-14T05:51:31.781Z,1.61
2018-12-14T05:52:06.372Z,1.58
2018-12-14T05:52:41.238Z,1.55
2018-12-14T05:53:15.924Z,1.51
2018-12-14T05:53:50.503Z,1.50
2018-12-14T05:54:25.126Z,1.46
2018-12-14T05:55:00.197Z,1.54
2018-12-14T05:55:34.891Z,1.50
2018-12-14T05:56:09.542Z,1.60
2018-12-14T05:56:44.568Z,1.60
2018-12-14T05:57:19.277Z,1.55
2018-12-14T05:57:54.134Z,1.57
2018-12-14T05:58:28.704Z,1.63
2018-12-14T05:59:03.278Z,1.65
2018-12-14T05:59:37.974Z,1.61
2018-12-14T06:00:13.559Z,1.57
2018-12-14T06:00:48.248Z,1.57
2018-12-14T06:01:23.039Z,1.63
2018-12-14T06:01:57.790Z,1.57
2018-12-14T06:02:32.405Z,1.57
2018-12-14T06:03:07.058Z,1.58
2018-12-14T06:03:42.244Z,1.64
2018-12-14T06:04:16.886Z,1.59
2018-12-14T06:04:51.494Z,1.61
2018-12-14T06:05:26.098Z,1.58
2018-12-14T06:06:01.163Z,1.58
2018-12-14T06:06:36.253Z,1.55
2018-12-14T06:07:11.036Z,1.48
2018-12-14T06:07:45.716Z,1.52
2018-12-14T06:08:20.353Z,1.53
2018-12-14T06:08:54.945Z,1.52
2018-12-14T06:09:29.597Z,1.58
2018-12-14T06:10:05.573Z,1.59
2018-12-14T06:10:40.329Z,1.55
2018-12-14T06:11:14.983Z,1.55
2018-12-14T06:11:49.660Z,1.52
2018-12-14T06:12:24.547Z,1.54
2018-12-14T06:12:59.193Z,1.53
2018-12-14T06:13:33.808Z,1.55
2018-12-14T06:14:08.466Z,1.53
2018-12-14T06:14:43.114Z,1.48
2018-12-14T06:15:18.130Z,1.55
2018-12-14T06:15:52.781Z,1.52
2018-12-14T06:16:27.860Z,1.58
2018-12-14T06:17:02.442Z,1.59
2018-12-14T06:17:37.060Z,1.52
2018-12-14T06:18:11.803Z,1.52
2018-12-14T06:18:46.491Z,1.66
2018-12-14T06:19:21.079Z,1.61
2018-12-14T06:19:55.720Z,1.60
2018-12-14T06:20:30.324Z,1.60
2018-12-14T06:21:05.337Z,1.59
2018-12-14T06:21:39.994Z,1.60
2018-12-14T06:22:14.715Z,1.57
2018-12-14T06:22:49.325Z,1.57
2018-12-14T06:23:23.963Z,1.60
2018-12-14T06:23:58.782Z,1.57
2018-12-14T06:24:33.376Z,1.58
2018-12-14T06:25:08.463Z,1.54
2018-12-14T06:25:43.398Z,1.50
2018-12-14T06:26:18.258Z,1.47
2018-12-14T06:26:52.909Z,1.66
2018-12-14T06:27:27.505Z,1.65
2018-12-14T06:28:02.136Z,1.59
2018-12-14T06:28:36.790Z,1.59
2018-12-14T06:29:11.436Z,1.52
2018-12-14T06:29:46.189Z,1.52
2018-12-14T06:30:20.806Z,1.51
2018-12-14T06:30:55.467Z,1.50
2018-12-14T06:31:30.075Z,1.50
2018-12-14T06:32:05.573Z,1.49
2018-12-14T06:32:40.346Z,1.53
2018-12-14T06:33:15.019Z,1.55
2018-12-14T06:33:49.686Z,1.55
2018-12-14T06:34:24.253Z,1.55
2018-12-14T06:34:58.869Z,1.54
2018-12-14T06:35:33.485Z,1.50
2018-12-14T06:36:08.091Z,1.42
2018-12-14T06:36:42.809Z,1.40
2018-12-14T06:37:17.829Z,1.44
2018-12-14T06:37:52.426Z,1.44
2018-12-14T06:38:27.006Z,1.44
2018-12-14T06:39:01.572Z,1.45
2018-12-14T06:39:36.149Z,1.42
2018-12-14T06:40:10.864Z,1.41
2018-12-14T06:40:45.575Z,1.47
2018-12-14T06:41:20.147Z,1.49
2018-12-14T06:41:55.070Z,1.51
2018-12-14T06:42:29.657Z,1.45
2018-12-14T06:43:04.279Z,1.48
2018-12-14T06:43:38.890Z,1.47
2018-12-14T06:44:13.523Z,1.45
2018-12-14T06:44:48.590Z,1.48
2018-12-14T06:45:23.724Z,1.47
2018-12-14T06:45:58.382Z,1.48
2018-12-14T06:46:32.985Z,1.45
2018-12-14T06:47:07.544Z,1.45
2018-12-14T06:47:42.179Z,1.50
2018-12-14T06:48:16.865Z,1.54
2018-12-14T06:48:51.518Z,1.51
2018-12-14T06:49:26.145Z,1.59
2018-12-14T06:50:01.166Z,1.57
2018-12-14T06:50:36.304Z,1.54
2018-12-14T06:51:11.703Z,1.53
2018-12-14T06:51:46.498Z,1.47
2018-12-14T06:52:21.423Z,1.48
2018-12-14T06:52:56.578Z,1.49
2018-12-14T06:53:31.204Z,1.49
2018-12-14T06:54:05.774Z,1.44
2018-12-14T06:54:40.504Z,1.44
2018-12-14T06:55:15.182Z,1.46
2018-12-14T06:55:49.793Z,1.44
2018-12-14T06:56:24.393Z,1.50
2018-12-14T06:56:59.006Z,1.51
2018-12-14T06:57:33.644Z,1.53
2018-12-14T06:58:08.347Z,1.48
2018-12-14T06:58:43.068Z,1.47
2018-12-14T06:59:23.447Z,1.52
2018-12-14T06:59:58.116Z,1.54
2018-12-14T07:00:32.715Z,1.54
2018-12-14T07:01:07.344Z,1.51
2018-12-14T07:01:42.058Z,1.47
2018-12-14T07:02:16.818Z,1.52
2018-12-14T07:02:51.496Z,1.47
2018-12-14T07:03:26.094Z,1.49
2018-12-14T07:04:00.722Z,1.52
2018-12-14T07:04:35.363Z,1.50
2018-12-14T07:05:10.236Z,1.51
2018-12-14T07:05:44.953Z,1.54
2018-12-14T07:06:19.707Z,1.55
2018-12-14T07:06:54.373Z,1.57
2018-12-14T07:07:29.015Z,1.64
2018-12-14T07:08:03.656Z,1.57
2018-12-14T07:08:38.299Z,1.58
2018-12-14T07:09:13.086Z,1.62
2018-12-14T07:09:47.968Z,1.57
2018-12-14T07:10:22.597Z,1.53
2018-12-14T07:10:57.180Z,1.53
2018-12-14T07:11:31.784Z,1.57
2018-12-14T07:12:06.883Z,1.53
2018-12-14T07:12:41.630Z,1.57
2018-12-14T07:13:21.694Z,1.58
2018-12-14T07:13:52.990Z,1.55
2018-12-14T07:14:28.097Z,1.50
2018-12-14T07:15:02.771Z,1.48
2018-12-14T07:15:37.852Z,1.54
2018-12-14T07:16:12.622Z,1.72
2018-12-14T07:16:47.380Z,1.63
2018-12-14T07:17:22.022Z,1.64
2018-12-14T07:17:56.949Z,1.57
2018-12-14T07:18:31.597Z,1.60
2018-12-14T07:19:06.211Z,1.58
2018-12-14T07:19:40.911Z,1.55
2018-12-14T07:20:15.740Z,1.51
2018-12-14T07:20:50.864Z,1.52
2018-12-14T07:21:25.485Z,1.52
2018-12-14T07:22:00.158Z,1.56
2018-12-14T07:22:34.882Z,1.51
2018-12-14T07:23:09.598Z,1.59
2018-12-14T07:23:44.442Z,1.55
2018-12-14T07:24:19.088Z,1.55
2018-12-14T07:24:53.715Z,1.58
2018-12-14T07:25:28.331Z,1.57
2018-12-14T07:26:02.956Z,1.64
2018-12-14T07:26:38.175Z,1.61
2018-12-14T07:27:12.862Z,1.64
2018-12-14T07:27:47.500Z,1.61
2018-12-14T07:28:22.117Z,1.62
2018-12-14T07:28:57.072Z,1.61
2018-12-14T07:29:31.682Z,1.62
2018-12-14T07:30:07.378Z,1.61
2018-12-14T07:30:42.049Z,1.68
2018-12-14T07:31:16.850Z,1.70
2018-12-14T07:31:51.518Z,1.64
2018-12-14T07:32:26.141Z,1.58
2018-12-14T07:33:00.802Z,1.58
2018-12-14T07:33:35.480Z,1.58
2018-12-14T07:34:10.696Z,1.51
2018-12-14T07:34:45.467Z,1.46
2018-12-14T07:35:20.285Z,1.55
2018-12-14T07:35:54.885Z,1.51
2018-12-14T07:36:29.585Z,1.49
2018-12-14T07:37:04.627Z,1.44
2018-12-14T07:37:39.617Z,1.43
2018-12-14T07:38:14.436Z,1.41
2018-12-14T07:38:49.232Z,1.44
2018-12-14T07:39:23.862Z,1.46
2018-12-14T07:39:58.477Z,1.44
2018-12-14T07:40:33.114Z,1.44
2018-12-14T07:41:07.788Z,1.48
2018-12-14T07:41:42.803Z,1.46
2018-12-14T07:42:17.514Z,1.45
2018-12-14T07:42:52.183Z,1.45
2018-12-14T07:43:28.375Z,1.50
2018-12-14T07:44:03.525Z,1.48